createdAt,value
2024-02-17T00:00:59.119Z,20.27
2024-02-17T00:03:25.276Z,22.27
2024-02-17T00:05:51.661Z,21.50
2024-02-17T00:08:17.896Z,20.75
2024-02-17T00:10:44.190Z,18.75
2024-02-17T00:13:10.221Z,19.35
2024-02-17T00:15:36.100Z,23.52
2024-02-17T00:18:04.093Z,23.17
2024-02-17T00:20:30.029Z,21.05
2024-02-17T00:22:55.873Z,21.17
2024-02-17T00:25:21.663Z,21.60
2024-02-17T00:27:47.569Z,18.40
2024-02-17T00:30:15.858Z,18.45
2024-02-17T00:32:42.128Z,21.83
2024-02-17T00:35:11.275Z,20.42
2024-02-17T00:40:05.714Z,20.13
2024-02-17T00:42:31.614Z,19.27
2024-02-17T00:44:57.481Z,25.67
2024-02-17T00:47:23.296Z,20.45
2024-02-17T00:49:49.447Z,17.60
2024-02-17T00:52:15.327Z,23.25
2024-02-17T00:54:41.311Z,19.00
2024-02-17T00:57:07.207Z,19.45
2024-02-17T00:59:34.091Z,21.95
2024-02-17T01:02:01.716Z,20.30
2024-02-17T01:04:27.681Z,21.25
2024-02-17T01:06:53.640Z,21.50
2024-02-17T01:09:19.554Z,19.67
2024-02-17T01:11:45.466Z,19.92
2024-02-17T01:14:11.278Z,21.58
2024-02-17T01:16:37.140Z,21.40
2024-02-17T01:19:03.181Z,17.98
2024-02-17T01:21:31.583Z,23.67
2024-02-17T01:23:58.560Z,21.17
2024-02-17T01:26:24.712Z,17.38
2024-02-17T01:28:50.728Z,18.13
2024-02-17T01:31:16.570Z,22.55
2024-02-17T01:33:42.365Z,18.02
2024-02-17T01:36:15.535Z,21.83
2024-02-17T01:38:41.398Z,19.25
2024-02-17T01:41:07.307Z,19.60
2024-02-17T01:43:33.166Z,22.88
2024-02-17T01:45:59.089Z,19.70
2024-02-17T01:48:25.217Z,19.48
2024-02-17T01:50:51.860Z,19.70
2024-02-17T01:53:17.993Z,19.77
2024-02-17T01:55:44.066Z,21.02
2024-02-17T01:58:11.168Z,20.65
2024-02-17T02:00:38.380Z,20.45
2024-02-17T02:03:05.155Z,22.60
2024-02-17T02:05:31.727Z,18.80
2024-02-17T02:07:57.640Z,21.13
2024-02-17T02:10:23.492Z,19.38
2024-02-17T02:12:49.512Z,20.55
2024-02-17T02:15:15.751Z,19.20
2024-02-17T02:17:42.193Z,17.90
2024-02-17T02:20:10.896Z,18.65
2024-02-17T02:22:36.903Z,19.38
2024-02-17T02:25:05.928Z,23.95
2024-02-17T02:29:59.269Z,19.17
2024-02-17T02:32:28.499Z,18.85
2024-02-17T02:34:54.928Z,18.58
2024-02-17T02:37:21.078Z,17.52
2024-02-17T02:39:47.204Z,18.65
2024-02-17T02:42:13.109Z,18.25
2024-02-17T02:44:38.960Z,19.02
2024-02-17T02:47:04.867Z,19.15
2024-02-17T02:49:30.846Z,17.27
2024-02-17T02:51:56.805Z,18.98
2024-02-17T02:54:22.701Z,16.98
2024-02-17T02:56:48.934Z,17.25
2024-02-17T02:59:14.794Z,20.48
2024-02-17T03:01:40.767Z,20.60
2024-02-17T03:04:06.836Z,17.77
2024-02-17T03:06:32.836Z,19.90
2024-02-17T03:08:59.081Z,18.48
2024-02-17T03:11:24.920Z,17.80
2024-02-17T03:13:51.313Z,18.80
2024-02-17T03:16:26.669Z,16.35
2024-02-17T03:18:53.595Z,18.15
2024-02-17T03:21:19.645Z,15.80
2024-02-17T03:23:46.071Z,18.52
2024-02-17T03:26:12.244Z,17.27
2024-02-17T03:28:38.240Z,18.88
2024-02-17T03:31:05.194Z,23.05
2024-02-17T03:33:31.365Z,19.25
2024-02-17T03:35:57.353Z,20.67
2024-02-17T03:38:23.281Z,18.77
2024-02-17T03:40:49.228Z,21.02
2024-02-17T03:43:15.056Z,20.90
2024-02-17T03:45:41.024Z,17.98
2024-02-17T03:48:07.647Z,19.67
2024-02-17T03:50:33.615Z,21.85
2024-02-17T03:52:59.515Z,17.98
2024-02-17T03:55:25.417Z,21.02
2024-02-17T03:57:51.314Z,18.40
2024-02-17T04:00:17.409Z,19.17
2024-02-17T04:02:43.391Z,16.23
2024-02-17T04:05:09.371Z,19.55
2024-02-17T04:07:35.449Z,20.45
2024-02-17T04:10:01.961Z,21.95
2024-02-17T04:12:27.931Z,19.20
2024-02-17T04:14:53.744Z,18.38
2024-02-17T04:17:19.601Z,18.27
2024-02-17T04:19:45.719Z,15.52
2024-02-17T04:22:11.650Z,16.98
2024-02-17T04:24:37.613Z,25.40
2024-02-17T04:27:03.911Z,19.40
2024-02-17T04:29:29.761Z,16.52
2024-02-17T04:31:57.646Z,17.40
2024-02-17T04:34:23.825Z,19.75
2024-02-17T04:36:49.772Z,17.00
2024-02-17T04:39:15.724Z,16.92
2024-02-17T04:41:41.617Z,16.92
2024-02-17T04:44:07.494Z,16.88
2024-02-17T04:46:33.414Z,16.40
2024-02-17T04:48:59.496Z,16.95
2024-02-17T04:51:25.571Z,17.20
2024-02-17T04:53:52.559Z,17.13
2024-02-17T04:56:18.701Z,18.67
2024-02-17T04:58:45.598Z,18.95
2024-02-17T05:01:11.654Z,17.92
2024-02-17T05:03:37.667Z,17.48
2024-02-17T05:06:04.457Z,16.88
2024-02-17T05:08:31.017Z,19.38
2024-02-17T05:10:58.264Z,18.52
2024-02-17T05:13:24.240Z,19.45
2024-02-17T05:15:50.624Z,17.15
2024-02-17T05:18:17.076Z,19.25
2024-02-17T05:20:43.015Z,19.35
2024-02-17T05:23:08.892Z,18.42
2024-02-17T05:25:34.759Z,20.30
2024-02-17T05:28:00.664Z,20.30
2024-02-17T05:30:26.701Z,16.58
2024-02-17T05:32:53.014Z,20.55
2024-02-17T05:35:18.980Z,18.60
2024-02-17T05:37:44.926Z,16.55
2024-02-17T05:40:12.384Z,19.42
2024-02-17T05:42:38.779Z,20.20
2024-02-17T05:45:05.221Z,20.92
2024-02-17T05:47:31.270Z,22.75
2024-02-17T05:49:57.780Z,19.30
2024-02-17T05:52:23.700Z,19.63
2024-02-17T05:54:49.608Z,17.80
2024-02-17T05:57:15.533Z,17.20
2024-02-17T05:59:41.388Z,20.92
2024-02-17T06:02:07.271Z,17.63
2024-02-17T06:04:33.143Z,23.70
2024-02-17T06:06:59.055Z,20.05
2024-02-17T06:09:25.001Z,21.80
2024-02-17T06:11:50.859Z,20.83
2024-02-17T06:14:16.874Z,23.73
2024-02-17T06:16:42.764Z,24.25
2024-02-17T06:19:27.367Z,23.40
2024-02-17T06:21:55.918Z,20.45
2024-02-17T06:24:21.880Z,22.20
2024-02-17T06:26:47.697Z,25.55
2024-02-17T06:29:13.828Z,23.75
2024-02-17T06:31:40.946Z,24.63
2024-02-17T06:34:07.690Z,22.02
2024-02-17T06:36:34.283Z,23.15
2024-02-17T06:39:00.382Z,22.33
2024-02-17T06:41:27.341Z,26.70
2024-02-17T06:43:53.169Z,25.20
2024-02-17T06:46:19.103Z,27.73
2024-02-17T06:48:45.379Z,25.00
2024-02-17T06:51:12.094Z,26.25
2024-02-17T06:53:38.282Z,26.20
2024-02-17T06:56:04.905Z,29.25
2024-02-17T06:58:30.778Z,27.30
2024-02-17T07:00:56.619Z,38.85
2024-02-17T07:03:22.482Z,38.10
2024-02-17T07:05:48.428Z,35.22
2024-02-17T07:08:14.705Z,31.05
2024-02-17T07:10:40.503Z,33.25
2024-02-17T07:13:12.897Z,32.88
2024-02-17T07:15:38.796Z,29.05
2024-02-17T07:18:05.000Z,28.17
2024-02-17T07:20:32.815Z,31.02
2024-02-17T07:22:59.843Z,30.48
2024-02-17T07:25:29.760Z,29.33
2024-02-17T07:27:59.693Z,29.23
2024-02-17T07:30:28.178Z,32.75
2024-02-17T07:32:54.717Z,35.85
2024-02-17T07:35:22.223Z,30.88
2024-02-17T07:37:48.095Z,35.63
2024-02-17T07:40:14.171Z,30.65
2024-02-17T07:42:40.004Z,29.83
2024-02-17T07:45:06.402Z,36.28
2024-02-17T07:47:35.525Z,32.28
2024-02-17T07:52:31.700Z,25.67
2024-02-17T07:54:57.568Z,26.40
2024-02-17T07:57:23.481Z,31.17
2024-02-17T07:59:49.341Z,33.53
2024-02-17T08:02:15.176Z,31.25
2024-02-17T08:04:43.106Z,33.38
2024-02-17T08:07:09.527Z,35.55
2024-02-17T08:09:35.441Z,34.90
2024-02-17T08:12:01.469Z,36.00
2024-02-17T08:14:29.619Z,34.10
2024-02-17T08:16:56.553Z,33.78
2024-02-17T08:19:22.559Z,36.95
2024-02-17T08:21:48.561Z,25.70
2024-02-17T08:24:14.468Z,28.08
2024-02-17T08:26:40.327Z,24.67
2024-02-17T08:29:06.135Z,26.67
2024-02-17T08:31:31.987Z,21.40
2024-02-17T08:33:58.015Z,22.23
2024-02-17T08:36:24.000Z,24.30
2024-02-17T08:38:50.787Z,23.65
2024-02-17T08:41:19.918Z,27.67
2024-02-17T08:43:48.085Z,22.25
2024-02-17T08:46:14.280Z,26.38
2024-02-17T08:48:40.503Z,22.60
2024-02-17T08:51:08.835Z,25.40
2024-02-17T08:53:35.471Z,23.20
2024-02-17T08:56:01.373Z,24.92
2024-02-17T08:58:27.268Z,22.08
2024-02-17T09:00:53.284Z,24.92
2024-02-17T09:03:19.221Z,25.95
2024-02-17T09:05:45.504Z,26.90
2024-02-17T09:08:11.320Z,24.55
2024-02-17T09:10:37.220Z,25.08
2024-02-17T09:13:03.161Z,22.42
2024-02-17T09:15:29.089Z,23.42
2024-02-17T09:17:55.049Z,22.38
2024-02-17T09:20:20.972Z,20.60
2024-02-17T09:22:46.890Z,27.48
2024-02-17T09:25:12.853Z,24.25
2024-02-17T09:27:38.931Z,21.45
2024-02-17T09:30:06.187Z,26.48
2024-02-17T09:32:32.200Z,21.35
2024-02-17T09:34:58.225Z,23.30
2024-02-17T09:37:24.259Z,19.13
2024-02-17T09:39:50.210Z,22.73
2024-02-17T09:42:16.152Z,22.80
2024-02-17T09:44:42.832Z,20.58
2024-02-17T09:47:08.771Z,22.80
2024-02-17T09:49:39.491Z,23.77
2024-02-17T09:52:06.698Z,23.33
2024-02-17T09:54:34.203Z,18.80
2024-02-17T09:57:01.174Z,17.88
2024-02-17T09:59:27.243Z,19.90
2024-02-17T10:01:53.129Z,21.67
2024-02-17T10:04:20.379Z,19.65
2024-02-17T10:06:58.896Z,17.90
2024-02-17T10:09:27.430Z,18.17
2024-02-17T10:11:54.339Z,12.13
2024-02-17T10:14:24.069Z,14.02
2024-02-17T10:16:57.794Z,11.82
2024-02-17T10:19:23.759Z,13.93
2024-02-17T10:21:49.749Z,13.65
2024-02-17T10:24:15.729Z,16.95
2024-02-17T10:26:42.497Z,14.93
2024-02-17T10:29:08.626Z,16.88
2024-02-17T10:31:34.501Z,15.70
2024-02-17T10:34:00.519Z,14.30
2024-02-17T10:36:26.763Z,11.95
2024-02-17T10:38:54.855Z,12.48
2024-02-17T10:41:22.594Z,13.68
2024-02-17T10:43:48.802Z,13.07
2024-02-17T10:46:27.192Z,12.18
2024-02-17T10:49:34.561Z,14.15
2024-02-17T10:52:05.493Z,16.30
2024-02-17T10:54:43.783Z,21.67
2024-02-17T10:57:13.763Z,18.15
2024-02-17T10:59:44.417Z,15.07
2024-02-17T11:02:15.831Z,14.80
2024-02-17T11:04:43.930Z,16.15
2024-02-17T11:07:11.756Z,12.73
2024-02-17T11:09:37.740Z,14.80
2024-02-17T11:12:35.774Z,16.13
2024-02-17T11:15:09.186Z,15.77
2024-02-17T11:17:40.936Z,14.65
2024-02-17T11:20:12.584Z,16.13
2024-02-17T11:22:42.837Z,16.55
2024-02-17T11:25:10.473Z,15.65
2024-02-17T11:27:37.461Z,14.70
2024-02-17T11:30:06.255Z,14.98
2024-02-17T11:32:32.191Z,14.52
2024-02-17T11:35:00.120Z,14.00
2024-02-17T11:37:28.191Z,17.38
2024-02-17T11:39:54.321Z,13.77
2024-02-17T11:42:23.114Z,14.45
2024-02-17T11:44:48.970Z,16.05
2024-02-17T11:47:15.084Z,16.50
2024-02-17T11:49:41.063Z,15.68
2024-02-17T11:52:07.963Z,14.32
2024-02-17T11:54:35.285Z,17.13
2024-02-17T11:57:02.703Z,17.52
2024-02-17T11:59:29.137Z,17.10
2024-02-17T12:01:55.493Z,17.63
2024-02-17T12:04:22.714Z,13.55
2024-02-17T12:06:48.674Z,14.32
2024-02-17T12:09:15.532Z,13.23
2024-02-17T12:11:41.716Z,18.10
2024-02-17T12:14:09.586Z,12.27
2024-02-17T12:16:36.271Z,16.38
2024-02-17T12:19:12.285Z,17.50
2024-02-17T12:21:38.883Z,19.92
2024-02-17T12:24:06.761Z,19.08
2024-02-17T12:26:45.052Z,16.10
2024-02-17T12:29:14.486Z,17.88
2024-02-17T12:31:42.669Z,19.50
2024-02-17T12:34:08.676Z,17.27
2024-02-17T12:36:35.264Z,24.25
2024-02-17T12:39:08.808Z,18.27
2024-02-17T12:41:34.713Z,20.92
2024-02-17T12:44:02.374Z,21.15
2024-02-17T12:46:28.895Z,21.33
2024-02-17T12:48:56.360Z,23.55
2024-02-17T12:51:24.118Z,21.85
2024-02-17T12:53:51.070Z,22.85
2024-02-17T12:56:18.024Z,20.58
2024-02-17T12:58:45.095Z,19.52
2024-02-17T13:01:10.987Z,19.10
2024-02-17T13:03:38.114Z,19.15
2024-02-17T13:06:06.634Z,22.35
2024-02-17T13:08:33.104Z,18.25
2024-02-17T13:10:59.716Z,19.85
2024-02-17T13:13:26.282Z,19.52
2024-02-17T13:15:52.379Z,19.70
2024-02-17T13:18:18.411Z,18.25
2024-02-17T13:20:44.967Z,16.48
2024-02-17T13:23:11.195Z,17.85
2024-02-17T13:25:37.017Z,17.08
2024-02-17T13:28:03.135Z,14.45
2024-02-17T13:30:29.164Z,14.00
2024-02-17T13:32:55.193Z,15.18
2024-02-17T13:35:21.248Z,14.93
2024-02-17T13:37:47.354Z,15.32
2024-02-17T13:40:18.215Z,14.55
2024-02-17T13:42:44.733Z,18.80
2024-02-17T13:45:13.604Z,16.15
2024-02-17T13:47:40.528Z,19.38
2024-02-17T13:50:08.216Z,15.95
2024-02-17T13:52:34.553Z,21.95
2024-02-17T13:55:01.464Z,16.80
2024-02-17T13:57:34.700Z,17.67
2024-02-17T14:00:03.865Z,18.63
2024-02-17T14:02:30.471Z,17.15
2024-02-17T14:05:05.890Z,17.25
2024-02-17T14:07:33.388Z,15.63
2024-02-17T14:09:59.406Z,14.52
2024-02-17T14:12:25.409Z,15.80
2024-02-17T14:14:51.444Z,19.10
2024-02-17T14:17:17.428Z,17.85
2024-02-17T14:19:46.275Z,19.85
2024-02-17T14:22:13.768Z,21.38
2024-02-17T14:24:40.097Z,23.20
2024-02-17T14:27:06.284Z,18.88
2024-02-17T14:29:38.430Z,18.60
2024-02-17T14:32:05.076Z,24.65
2024-02-17T14:34:31.753Z,18.38
2024-02-17T14:37:01.391Z,17.63
2024-02-17T14:39:27.810Z,21.77
2024-02-17T14:41:54.182Z,17.98
2024-02-17T14:44:20.740Z,20.30
2024-02-17T14:46:47.856Z,20.45
2024-02-17T14:49:14.164Z,17.83
2024-02-17T14:51:40.377Z,21.70
2024-02-17T14:54:06.652Z,19.40
2024-02-17T14:56:32.493Z,20.98
2024-02-17T14:58:58.818Z,18.42
2024-02-17T15:01:24.749Z,20.13
2024-02-17T15:03:50.866Z,17.27
2024-02-17T15:06:16.932Z,18.90
2024-02-17T15:08:44.024Z,20.33
2024-02-17T15:11:10.023Z,18.75
2024-02-17T15:13:36.499Z,19.80
2024-02-17T15:16:02.502Z,22.13
2024-02-17T15:18:28.992Z,21.58
2024-02-17T15:20:55.702Z,20.55
2024-02-17T15:23:21.833Z,20.27
2024-02-17T15:25:48.686Z,20.35
2024-02-17T15:28:18.448Z,22.63
2024-02-17T15:30:47.674Z,21.25
2024-02-17T15:33:14.657Z,20.88
2024-02-17T15:35:42.571Z,21.05
2024-02-17T15:38:13.279Z,21.92
2024-02-17T15:40:39.640Z,26.75
2024-02-17T15:43:05.662Z,23.42
2024-02-17T15:45:31.782Z,20.42
2024-02-17T15:47:58.358Z,21.70
2024-02-17T15:50:27.958Z,22.27
2024-02-17T15:52:54.357Z,20.83
2024-02-17T15:55:20.977Z,19.42
2024-02-17T15:57:52.381Z,24.30
2024-02-17T16:00:22.038Z,20.05
2024-02-17T16:02:49.128Z,23.48
2024-02-17T16:05:15.795Z,22.15
2024-02-17T16:07:41.663Z,20.55
2024-02-17T16:10:10.127Z,21.13
2024-02-17T16:12:36.969Z,23.98
2024-02-17T16:15:07.780Z,22.98
2024-02-17T16:17:34.127Z,24.40
2024-02-17T16:20:02.037Z,18.98
2024-02-17T16:22:28.069Z,20.08
2024-02-17T16:24:53.931Z,23.23
2024-02-17T16:27:19.978Z,23.38
2024-02-17T16:29:45.987Z,21.25
2024-02-17T16:32:11.882Z,22.25
2024-02-17T16:34:37.824Z,24.00
2024-02-17T16:37:04.043Z,23.25
2024-02-17T16:39:32.890Z,24.08
2024-02-17T16:42:00.460Z,20.63
2024-02-17T16:44:26.269Z,23.10
2024-02-17T16:46:55.061Z,25.83
2024-02-17T16:49:21.215Z,22.88
2024-02-17T16:51:54.897Z,22.77
2024-02-17T16:54:21.645Z,20.55
2024-02-17T16:56:47.589Z,19.98
2024-02-17T16:59:14.147Z,21.23
2024-02-17T17:01:40.119Z,20.17
2024-02-17T17:04:06.237Z,21.90
2024-02-17T17:06:32.647Z,23.50
2024-02-17T17:08:58.927Z,19.27
2024-02-17T17:11:25.937Z,21.17
2024-02-17T17:13:53.549Z,19.98
2024-02-17T17:16:19.504Z,21.85
2024-02-17T17:18:45.809Z,23.70
2024-02-17T17:21:13.562Z,20.10
2024-02-17T17:23:39.492Z,20.40
2024-02-17T17:26:05.567Z,21.83
2024-02-17T17:28:31.570Z,20.20
2024-02-17T17:30:57.578Z,20.45
2024-02-17T17:33:23.643Z,21.70
2024-02-17T17:35:50.307Z,23.70
2024-02-17T17:38:16.144Z,22.33
2024-02-17T17:40:42.047Z,22.85
2024-02-17T17:43:08.114Z,24.98
2024-02-17T17:45:34.072Z,20.98
2024-02-17T17:48:00.036Z,23.60
2024-02-17T17:50:26.822Z,21.13
2024-02-17T17:52:53.809Z,23.42
2024-02-17T17:55:20.507Z,25.33
2024-02-17T17:57:46.578Z,19.70
2024-02-17T18:00:18.745Z,25.60
2024-02-17T18:02:46.760Z,21.45
2024-02-17T18:05:13.689Z,22.15
2024-02-17T18:07:40.082Z,23.60
2024-02-17T18:10:07.560Z,23.08
2024-02-17T18:12:33.488Z,21.83
2024-02-17T18:15:01.270Z,19.48
2024-02-17T18:17:27.176Z,21.17
2024-02-17T18:19:54.118Z,22.30
2024-02-17T18:22:21.645Z,23.65
2024-02-17T18:24:47.933Z,24.13
2024-02-17T18:27:14.132Z,25.42
2024-02-17T18:29:40.046Z,22.30
2024-02-17T18:32:06.225Z,27.73
2024-02-17T18:34:32.149Z,22.85
2024-02-17T18:36:58.451Z,28.38
2024-02-17T18:39:24.396Z,25.58
2024-02-17T18:41:50.923Z,25.45
2024-02-17T18:44:17.337Z,23.38
2024-02-17T18:46:45.690Z,24.15
2024-02-17T18:49:11.695Z,25.13
2024-02-17T18:51:45.303Z,25.95
2024-02-17T18:54:11.541Z,24.10
2024-02-17T18:56:37.577Z,22.95
2024-02-17T18:59:03.538Z,25.80
2024-02-17T19:01:29.791Z,24.25
2024-02-17T19:03:55.833Z,29.88
2024-02-17T19:06:22.303Z,24.77
2024-02-17T19:08:48.658Z,23.88
2024-02-17T19:11:14.788Z,26.60
2024-02-17T19:13:40.875Z,24.50
2024-02-17T19:16:08.052Z,26.15
2024-02-17T19:18:34.391Z,26.38
2024-02-17T19:21:00.370Z,23.15
2024-02-17T19:23:28.961Z,25.52
2024-02-17T19:25:54.886Z,25.45
2024-02-17T19:28:20.730Z,26.10
2024-02-17T19:30:46.699Z,26.42
2024-02-17T19:33:12.662Z,23.08
2024-02-17T19:35:39.373Z,27.35
2024-02-17T19:38:05.339Z,20.65
2024-02-17T19:40:34.857Z,25.95
2024-02-17T19:43:01.504Z,24.10
2024-02-17T19:45:27.489Z,23.40
2024-02-17T19:47:53.558Z,19.92
2024-02-17T19:50:19.486Z,19.83
2024-02-17T19:52:45.353Z,23.70
2024-02-17T19:55:11.843Z,25.58
2024-02-17T19:57:38.895Z,24.30
2024-02-17T20:00:06.023Z,24.45
2024-02-17T20:02:34.137Z,25.02
2024-02-17T20:05:00.857Z,24.88
2024-02-17T20:07:28.091Z,26.50
2024-02-17T20:09:54.385Z,24.73
2024-02-17T20:12:25.404Z,23.27
2024-02-17T20:14:53.445Z,23.58
2024-02-17T20:17:24.610Z,28.30
2024-02-17T20:19:55.224Z,25.38
2024-02-17T20:22:21.207Z,21.58
2024-02-17T20:24:48.227Z,23.73
2024-02-17T20:27:14.076Z,24.35
2024-02-17T20:29:39.906Z,24.75
2024-02-17T20:32:05.970Z,23.60
2024-02-17T20:34:32.060Z,20.80
2024-02-17T20:36:58.946Z,25.60
2024-02-17T20:39:25.184Z,26.40
2024-02-17T20:41:53.898Z,30.75
2024-02-17T20:44:24.444Z,23.83
2024-02-17T20:46:51.864Z,33.03
2024-02-17T20:49:18.365Z,27.83
2024-02-17T20:51:44.440Z,27.33
2024-02-17T20:54:11.830Z,26.63
2024-02-17T20:56:37.836Z,24.75
2024-02-17T20:59:13.424Z,26.67
2024-02-17T21:01:46.799Z,26.00
2024-02-17T21:04:12.711Z,26.75
2024-02-17T21:06:38.772Z,31.60
2024-02-17T21:09:07.673Z,25.92
2024-02-17T21:14:02.741Z,26.10
2024-02-17T21:16:28.834Z,27.80
2024-02-17T21:18:54.866Z,26.73
2024-02-17T21:21:27.926Z,26.10
2024-02-17T21:23:54.868Z,28.00
2024-02-17T21:26:20.724Z,28.73
2024-02-17T21:28:46.959Z,26.80
2024-02-17T21:31:15.083Z,26.80
2024-02-17T21:33:41.958Z,24.98
2024-02-17T21:36:07.948Z,26.15
2024-02-17T21:38:33.863Z,28.70
2024-02-17T21:40:59.759Z,24.20
2024-02-17T21:43:25.590Z,26.10
2024-02-17T21:45:52.711Z,27.05
2024-02-17T21:48:18.822Z,24.90
2024-02-17T21:50:44.892Z,26.92
2024-02-17T21:53:10.841Z,27.00
2024-02-17T21:55:39.311Z,27.40
2024-02-17T21:58:06.009Z,28.00
2024-02-17T22:00:31.941Z,30.75
2024-02-17T22:02:57.888Z,30.33
2024-02-17T22:05:23.816Z,26.58
2024-02-17T22:07:49.643Z,30.02
2024-02-17T22:10:15.581Z,23.13
2024-02-17T22:12:41.438Z,24.60
2024-02-17T22:15:08.314Z,27.77
2024-02-17T22:17:34.235Z,27.88
2024-02-17T22:20:00.325Z,23.48
2024-02-17T22:22:26.321Z,24.13
2024-02-17T22:24:52.217Z,27.55
2024-02-17T22:27:18.092Z,24.88
2024-02-17T22:29:43.962Z,23.52
2024-02-17T22:32:09.919Z,25.70
2024-02-17T22:34:35.920Z,23.70
2024-02-17T22:37:01.992Z,23.30
2024-02-17T22:39:28.059Z,22.73
2024-02-17T22:41:55.565Z,23.80
2024-02-17T22:44:21.706Z,22.42
2024-02-17T22:46:47.928Z,25.52
2024-02-17T22:49:13.850Z,27.83
2024-02-17T22:51:42.123Z,24.70
2024-02-17T22:54:08.517Z,28.67
2024-02-17T22:56:35.404Z,27.05
2024-02-17T22:59:02.282Z,28.08
2024-02-17T23:01:28.359Z,25.95
2024-02-17T23:03:54.454Z,31.73
2024-02-17T23:06:20.786Z,25.02
2024-02-17T23:08:47.199Z,25.67
2024-02-17T23:11:16.239Z,28.48
2024-02-17T23:13:42.165Z,27.23
2024-02-17T23:16:08.162Z,27.02
2024-02-17T23:18:35.040Z,27.95
2024-02-17T23:21:01.051Z,27.80
2024-02-17T23:23:27.313Z,27.90
2024-02-17T23:25:53.171Z,25.50
2024-02-17T23:28:19.026Z,25.13
2024-02-17T23:30:45.758Z,25.45
2024-02-17T23:33:11.632Z,23.85
2024-02-17T23:35:38.195Z,25.48
2024-02-17T23:38:04.012Z,28.10
2024-02-17T23:40:30.512Z,27.08
2024-02-17T23:42:56.407Z,27.83
2024-02-17T23:45:22.908Z,24.38
2024-02-17T23:47:48.941Z,31.58
2024-02-17T23:50:14.999Z,30.27
2024-02-17T23:52:40.935Z,27.17
2024-02-17T23:55:08.859Z,25.48
2024-02-17T23:57:35.584Z,24.73
